Latest Weather Observations for Warracknabeal Airport

IDV60801

Issued at 10:12 pm EST Thursday 20 June 2019 (issued every 10 minutes, with the page automatically refreshed every 10 minutes)

About weather observations | Map of weather stations | Latest weather observations for VIC | Other Formats
Station Details ID: 078018 Name: WARRACKNABEAL AIRPORT Lat: -36.32 Lon: 142.42 Height: 118.3 m
Data from the previous 72 hours. | See also: Recent months at Warracknabeal Airport
Date/Time
EST
Temp
°C
App
Temp
°C
Dew
Point
°C
Rel
Hum
%
Delta-T
°C
Wind Press
QNH
hPa
Press
MSL
hPa
Rain since
9am
mm
Dir  Spd
km/h
Gust
km/h
Spd
kts
Gust
kts
20/10:00pm 3.6 -0.3 1.3 85 0.9 SSW 11 13 6 7 1027.9 1028.1 0.0
20/09:30pm 3.8 -0.4 1.4 84 0.9 SSW 13 15 7 8 1027.8 1028.0 0.0
20/09:00pm 4.5 0.7 1.9 83 1.0 SSW 11 15 6 8 1027.8 1028.0 0.0
20/08:30pm 5.0 0.5 2.0 81 1.2 SSW 15 17 8 9 1027.7 1027.9 0.0
20/08:00pm 4.9 1.1 1.9 81 1.2 SW 11 13 6 7 1027.4 1027.6 0.0
20/07:30pm 5.4 1.3 2.1 79 1.3 SW 13 13 7 7 1027.2 1027.4 0.0
20/07:00pm 5.8 1.7 2.1 77 1.5 SW 13 13 7 7 1026.9 1027.1 0.0
20/06:30pm 6.3 2.5 1.8 73 1.8 SW 11 13 6 7 1026.6 1026.8 0.0
20/06:00pm 7.0 4.0 2.1 71 2.0 SW 7 9 4 5 1026.3 1026.5 0.0
20/05:30pm 7.9 4.1 1.7 65 2.6 SW 11 11 6 6 1025.9 1026.1 0.0
20/05:00pm 9.8 5.9 1.2 55 3.5 SW 11 15 6 8 1025.6 1025.9 0.0
20/04:30pm 11.3 6.3 1.5 51 4.2 SW 17 20 9 11 1025.4 1025.7 0.0
20/04:00pm 12.0 7.0 1.3 48 4.5 SW 17 20 9 11 1025.3 1025.6 0.0
20/03:30pm 11.4 6.0 1.4 50 4.2 SW 19 22 10 12 1025.2 1025.5 0.0
20/03:00pm 11.2 5.8 1.5 51 4.1 SSW 19 22 10 12 1025.3 1025.6 0.0
20/02:30pm 11.2 6.2 1.5 51 4.1 SW 17 20 9 11 1025.3 1025.6 0.0
20/02:00pm 11.6 7.0 1.5 50 4.3 SW 15 19 8 10 1025.3 1025.6 0.0
20/01:30pm 10.9 6.6 3.5 60 3.3 SSW 15 20 8 11 1025.6 1025.9 0.0
20/01:00pm 11.9 8.6 4.4 60 3.4 SSW 11 20 6 11 1026.0 1026.2 0.0
20/12:30pm 11.5 8.3 5.2 65 2.9 SW 11 15 6 8 1026.4 1026.6 0.0
20/12:00pm 10.8 7.2 4.9 67 2.7 SW 13 17 7 9 1026.7 1026.9 0.0
20/11:30am 9.9 7.7 6.1 77 1.8 S 7 11 4 6 1027.1 1027.3 0.0
20/11:00am 9.3 6.7 6.0 80 1.5 S 9 11 5 6 1027.3 1027.5 0.0
20/10:30am 8.7 6.1 6.0 83 1.2 S 9 11 5 6 1027.3 1027.5 0.0
20/10:00am 8.1 5.1 6.2 88 0.9 S 11 13 6 7 1027.2 1027.4 0.0
20/09:30am 7.5 4.5 6.0 90 0.7 S 11 13 6 7 1027.0 1027.2 0.0
20/09:00am 7.3 4.6 5.8 90 0.7 S 9 11 5 6 1026.9 1027.1 0.0
20/08:30am 6.8 4.1 5.7 93 0.5 S 9 11 5 6 1026.7 1026.9 0.0
20/08:00am 6.5 3.8 5.5 93 0.4 S 9 13 5 7 1026.6 1026.8 0.0
20/07:30am 6.7 3.9 5.3 91 0.6 S 9 11 5 6 1026.4 1026.6 0.0
20/07:00am 6.7 3.9 5.3 91 0.6 S 9 11 5 6 1026.2 1026.4 0.0
20/06:30am 6.7 4.0 5.5 92 0.5 S 9 13 5 7 1026.1 1026.3 0.0
20/06:00am 6.6 3.9 5.4 92 0.5 S 9 11 5 6 1025.9 1026.1 0.0
20/05:30am 6.5 4.7 5.5 93 0.4 S 4 9 2 5 1025.7 1026.0 0.0
20/05:00am 6.6 4.3 5.6 93 0.4 S 7 9 4 5 1025.6 1025.9 0.0
20/04:30am 6.6 4.3 5.6 93 0.4 S 7 7 4 4 1025.6 1025.9 0.0
20/04:00am 6.7 4.5 5.3 91 0.6 S 6 7 3 4 1025.7 1026.0 0.0
20/03:30am 6.6 4.3 5.6 93 0.4 S 7 7 4 4 1026.0 1026.2 0.0
20/03:00am 6.5 4.2 5.5 93 0.4 S 7 7 4 4 1026.2 1026.4 0.0
20/02:30am 6.6 4.4 5.2 91 0.6 S 6 6 3 3 1026.2 1026.4 0.0
20/02:00am 6.8 5.4 5.3 90 0.7 S 2 6 1 3 1026.1 1026.3 0.0
20/01:30am 6.8 5.0 5.4 91 0.6 S 4 7 2 4 1026.2 1026.4 0.0
20/01:00am 6.9 4.5 5.2 89 0.7 S 7 9 4 5 1026.2 1026.4 0.0
20/12:30am 7.1 4.7 5.4 89 0.8 S 7 9 4 5 1026.3 1026.5 0.0
20/12:00am 7.4 6.2 4.7 83 1.2 CALM 0 0 0 0 1026.4 1026.6 0.0
 
Date/Time
EST
Temp
°C
App
Temp
°C
Dew
Point
°C
Rel
Hum
%
Delta-T
°C
Wind Press
QNH
hPa
Press
MSL
hPa
Rain since
9am
mm
Dir  Spd
km/h
Gust
km/h
Spd
kts
Gust
kts
19/11:30pm 7.8 6.6 4.6 80 1.4 CALM 0 0 0 0 1026.5 1026.7 0.0
19/11:00pm 7.0 4.7 5.5 90 0.7 S 7 11 4 6 1026.5 1026.7 0.0
19/10:30pm 7.1 6.1 5.6 90 0.7 CALM 0 0 0 0 1026.7 1026.9 0.0
19/10:00pm 7.4 6.4 5.5 88 0.8 CALM 0 0 0 0 1026.7 1026.9 0.0
19/09:30pm 7.8 5.9 5.1 83 1.2 S 4 11 2 6 1026.8 1027.0 0.0
19/09:00pm 7.7 6.6 5.2 84 1.1 CALM 0 0 0 0 1026.7 1026.9 0.0
19/08:30pm 7.8 6.6 4.4 79 1.5 CALM 0 0 0 0 1026.8 1027.0 0.0
19/08:00pm 7.9 6.9 5.7 86 1.0 CALM 0 0 0 0 1026.7 1026.9 0.0
19/07:30pm 8.1 7.1 5.7 85 1.1 CALM 0 0 0 0 1026.7 1026.9 0.0
19/07:00pm 8.3 6.5 5.6 83 1.2 S 4 7 2 4 1026.6 1026.8 0.0
19/06:30pm 8.6 6.4 5.5 81 1.4 S 6 7 3 4 1026.5 1026.7 0.0
19/06:00pm 8.5 5.5 6.0 84 1.1 S 11 17 6 9 1026.5 1026.7 0.0
19/05:30pm 9.6 6.7 4.6 71 2.2 SSW 9 11 5 6 1026.4 1026.6 0.0
19/05:00pm 10.0 6.9 3.7 65 2.8 SSW 9 13 5 7 1026.3 1026.5 0.0
19/04:30pm 10.3 6.8 3.3 62 3.1 SSW 11 13 6 7 1026.4 1026.6 0.0
19/04:00pm 11.2 8.0 3.0 57 3.6 SSW 9 13 5 7 1026.2 1026.4 0.0
19/03:30pm 11.9 8.4 3.4 56 3.8 SSW 11 15 6 8 1026.2 1026.4 0.0
19/03:00pm 11.9 8.0 3.2 55 3.8 SSW 13 17 7 9 1026.2 1026.4 0.0
19/02:30pm 11.2 8.2 4.2 62 3.2 SSW 9 13 5 7 1026.3 1026.5 0.0
19/02:00pm 11.8 8.9 4.8 62 3.2 SW 9 17 5 9 1026.5 1026.7 0.0
19/01:30pm 10.5 7.4 3.5 62 3.1 SSW 9 13 5 7 1026.8 1027.0 0.0
19/01:00pm 10.3 6.4 3.3 62 3.0 SSW 13 19 7 10 1027.1 1027.3 0.0
19/12:30pm 10.2 6.8 3.9 65 2.8 SW 11 17 6 9 1027.5 1027.7 0.0
19/12:00pm 10.6 7.6 5.8 72 2.2 SW 11 15 6 8 1027.8 1028.0 0.0
19/11:30am 9.5 6.9 5.9 78 1.7 SW 9 15 5 8 1028.2 1028.4 0.0
19/11:00am 8.0 4.8 5.1 82 1.3 SW 11 15 6 8 1028.3 1028.5 0.0
19/10:30am 6.7 3.9 5.3 91 0.6 SW 9 13 5 7 1028.3 1028.5 0.0
19/10:00am 5.2 2.0 4.9 98 0.1 SW 11 15 6 8 1028.0 1028.2 0.0
19/09:30am 4.0 1.0 3.9 99 0.0 SW 9 13 5 7 1027.7 1027.9 0.0
19/09:00am 2.9 -0.7 2.8 99 0.0 SW 11 13 6 7 1027.4 1027.6 0.4
19/08:30am 1.5 -2.4 1.4 99 0.0 SW 11 13 6 7 1027.0 1027.2 0.2
19/08:00am 0.3 -3.0 0.2 99 0.0 SW 7 9 4 5 1026.7 1026.9 0.2
19/07:30am 0.6 -3.4 0.5 99 0.0 SW 11 13 6 7 1026.5 1026.7 0.2
19/07:00am 1.0 -2.9 0.9 99 0.0 SW 11 13 6 7 1026.5 1026.7 0.2
19/06:30am 1.0 -3.3 0.9 99 0.0 SW 13 15 7 8 1026.0 1026.2 0.2
19/06:00am 1.1 -2.4 1.0 99 0.0 SW 9 9 5 5 1025.6 1025.9 0.2
19/05:30am 0.5 -2.8 0.4 99 0.0 SW 7 9 4 5 1025.4 1025.7 0.2
19/05:00am 1.6 -1.3 1.5 99 0.0 SW 6 7 3 4 1025.6 1025.9 0.2
19/04:30am 1.5 -2.0 1.4 99 0.0 SW 9 11 5 6 1025.4 1025.7 0.2
19/04:00am 1.2 -3.5 1.1 99 0.0 SW 15 17 8 9 1025.6 1025.9 0.2
19/03:30am 1.3 -2.6 1.2 99 0.0 SSW 11 13 6 7 1025.5 1025.8 0.2
19/03:00am 1.1 -2.8 1.0 99 0.0 SSW 11 13 6 7 1025.5 1025.8 0.2
19/02:30am 0.7 -1.2 0.6 99 0.0 CALM 0 0 0 0 1025.5 1025.8 0.2
19/02:00am 1.8 -1.6 1.7 99 0.0 SSW 9 13 5 7 1025.3 1025.6 0.2
19/01:30am 2.2 -1.9 2.1 99 0.0 SSW 13 15 7 8 1025.1 1025.4 0.2
19/01:00am 2.1 -1.7 1.8 98 0.1 SSW 11 13 6 7 1025.0 1025.3 0.2
19/12:30am 2.6 -0.7 2.3 98 0.1 SSW 9 11 5 6 1025.1 1025.4 0.2
19/12:00am 2.3 -1.5 1.7 96 0.2 SSW 11 13 6 7 1025.0 1025.3 0.2
 
Date/Time
EST
Temp
°C
App
Temp
°C
Dew
Point
°C
Rel
Hum
%
Delta-T
°C
Wind Press
QNH
hPa
Press
MSL
hPa
Rain since
9am
mm
Dir  Spd
km/h
Gust
km/h
Spd
kts
Gust
kts
18/11:30pm 2.8 -0.9 2.4 97 0.2 SSW 11 13 6 7 1025.0 1025.3 0.0
18/11:00pm 3.1 -0.6 2.4 95 0.3 SSW 11 13 6 7 1024.9 1025.2 0.0
18/10:30pm 3.4 0.1 2.5 94 0.4 SSW 9 11 5 6 1024.8 1025.1 0.0
18/10:00pm 3.0 -0.7 2.3 95 0.3 SSW 11 13 6 7 1024.7 1025.0 0.0
18/09:30pm 3.5 0.7 2.9 96 0.2 SSW 7 9 4 5 1024.6 1024.9 0.0
18/09:00pm 3.9 0.7 2.9 93 0.4 SSW 9 11 5 6 1024.5 1024.8 0.0
18/08:30pm 4.1 0.9 3.1 93 0.4 SSW 9 13 5 7 1024.3 1024.6 0.0
18/08:00pm 4.8 1.7 3.8 93 0.4 SSW 9 11 5 6 1024.0 1024.3 0.0
18/07:30pm 5.0 1.5 3.5 90 0.6 SSW 11 13 6 7 1023.7 1024.0 0.0
18/07:00pm 6.0 2.9 3.8 86 0.9 SSW 9 13 5 7 1023.5 1023.7 0.0
18/06:30pm 6.4 3.0 4.1 85 1.0 SSW 11 13 6 7 1023.1 1023.3 0.0
18/06:00pm 7.2 3.5 4.5 83 1.2 SSW 13 17 7 9 1022.8 1023.0 0.0
18/05:30pm 8.3 3.9 4.5 77 1.7 SSW 17 20 9 11 1022.5 1022.7 0.0
18/05:00pm 9.7 4.8 4.9 72 2.2 SSW 20 26 11 14 1022.3 1022.5 0.0
18/04:30pm 10.5 6.1 4.9 68 2.5 SW 17 20 9 11 1021.8 1022.0 0.0
18/04:00pm 11.3 5.5 4.5 63 3.1 SSW 24 32 13 17 1021.6 1021.8 0.0
18/03:30pm 12.1 6.9 5.7 65 3.0 SW 22 30 12 16 1021.4 1021.6 0.0
18/03:00pm 11.4 6.6 5.7 68 2.6 WSW 20 28 11 15 1021.2 1021.4 0.0
18/02:30pm 11.9 5.6 5.8 66 2.9 SW 28 37 15 20 1020.9 1021.1 0.0
18/02:00pm 12.0 6.2 6.1 67 2.8 SSW 26 37 14 20 1020.8 1021.0 0.0
18/01:30pm 12.0 5.0 5.9 66 2.9 SW 32 43 17 23 1020.8 1021.0 0.0
18/01:00pm 10.9 4.6 5.7 70 2.4 SW 28 39 15 21 1020.8 1021.0 0.0
18/12:30pm 11.4 4.5 6.3 71 2.4 SW 32 43 17 23 1020.9 1021.1 0.0
18/12:00pm 10.7 4.6 6.5 75 2.0 SW 28 35 15 19 1020.9 1021.1 0.0
18/11:30am 11.3 5.0 7.4 77 1.9 SW 30 35 16 19 1021.0 1021.2 0.0
18/11:00am 10.3 5.2 7.5 83 1.3 WSW 24 32 13 17 1020.9 1021.1 0.0
18/10:30am 10.1 4.9 7.3 83 1.3 WSW 24 32 13 17 1020.9 1021.1 0.0
18/10:00am 9.6 4.2 7.9 89 0.8 W 26 33 14 18 1020.5 1020.7 0.0
18/09:30am 8.9 4.9 8.1 95 0.4 W 19 26 10 14 1019.8 1020.0 0.0
18/09:00am 8.5 4.9 8.4 99 0.0 W 17 22 9 12 1019.5 1019.7 0.8
18/08:30am 8.0 4.3 7.9 99 0.0 WNW 17 20 9 11 1019.0 1019.2 0.8
18/08:00am 8.1 4.8 8.0 99 0.0 WNW 15 20 8 11 1018.7 1018.9 0.8
18/07:30am 8.5 4.9 8.4 99 0.0 WNW 17 20 9 11 1018.2 1018.4 0.8
18/07:00am 8.5 4.9 8.4 99 0.0 NW 17 22 9 12 1017.9 1018.1 0.8
18/06:30am 8.5 4.5 8.4 99 0.0 WNW 19 26 10 14 1017.6 1017.8 0.8
18/06:00am 8.5 4.5 8.4 99 0.0 NW 19 26 10 14 1017.4 1017.6 0.8
18/05:30am 8.6 4.5 8.5 99 0.0 NW 20 26 11 14 1017.2 1017.4 0.8
18/05:00am 8.8 5.0 7.7 93 0.5 WNW 17 24 9 13 1017.1 1017.3 0.4
18/04:30am 8.9 4.6 7.7 92 0.6 NW 20 30 11 16 1017.1 1017.3 0.4
18/04:00am 9.8 5.2 6.5 80 1.5 NNW 20 26 11 14 1016.9 1017.2 0.0
18/03:30am 10.0 5.4 6.5 79 1.6 N 20 26 11 14 1017.2 1017.4 0.0
18/03:00am 9.3 5.3 6.6 83 1.3 N 17 20 9 11 1017.2 1017.4 0.0
18/02:30am 9.8 5.4 6.5 80 1.5 N 19 24 10 13 1017.4 1017.6 0.0
18/02:00am 10.2 5.9 6.9 80 1.6 N 19 24 10 13 1017.4 1017.6 0.0
18/01:30am 10.3 6.4 7.0 80 1.6 NNW 17 20 9 11 1017.7 1017.9 0.0
18/01:00am 10.5 6.2 7.2 80 1.6 N 19 22 10 12 1017.9 1018.1 0.0
18/12:30am 10.8 6.6 7.3 79 1.7 NNW 19 26 10 14 1018.2 1018.4 0.0
18/12:00am 10.9 6.6 7.2 78 1.8 NNW 19 22 10 12 1018.3 1018.5 0.0
 
Date/Time
EST
Temp
°C
App
Temp
°C
Dew
Point
°C
Rel
Hum
%
Delta-T
°C
Wind Press
QNH
hPa
Press
MSL
hPa
Rain since
9am
mm
Dir  Spd
km/h
Gust
km/h
Spd
kts
Gust
kts
17/11:30pm 11.0 6.3 7.7 80 1.6 N 22 28 12 15 1018.6 1018.8 0.0
17/11:00pm 10.8 6.6 7.5 80 1.6 N 19 24 10 13 1018.6 1018.8 0.0
17/10:30pm 10.9 6.2 7.6 80 1.6 N 22 28 12 15 1018.5 1018.7 0.0

Other formats

Comma delimited format used in spreadsheet applications
http://www.bom.gov.au/fwo/IDV60801/IDV60801.94920.axf

JavaScript Object Notation format (JSON) in row-major order
http://www.bom.gov.au/fwo/IDV60801/IDV60801.94920.json

Data quality

Most of these data are generated automatically and are frequently updated. Quality checks on data are not normally performed. It is possible for incorrect values to appear. Refer to information at About Latest Weather Observations and please check the disclaimer before using these data.